Anthony, Kansas
Current Conditions -  °F | °C
As of 9:55 AM on Friday 28 Nov 2014 (Local Time) from KAVK Reporting Station
Clear Clear  
Wind Chill:   Ceiling: Unl
Heat Index:   Visibility: 10mi
Dew Point:   Wind: 12mph
Humidity: 54%   Direction: 200°SSW
Pressure: 29.98"   Gusts: NA
Location:  37.15°N, 98.03°W
Report Text: KAVK 281555Z AUTO 20010KT 10SM CLR 09/00 A2998 RMK AO2
Loading
Personal Weather Stations






























Interactive Weather Map New forecast layout! Learn more

10-Day Weather Forecast

Advertisements
Track Severe Weather on mobile